createdAt,value
2022-08-08T00:00:49.951Z,53.63
2022-08-08T00:03:01.785Z,53.83
2022-08-08T00:06:35.064Z,54.62
2022-08-08T00:09:47.459Z,54.35
2022-08-08T00:13:20.838Z,54.97
2022-08-08T00:16:44.156Z,55.28
2022-08-08T00:20:02.858Z,55.69
2022-08-08T00:23:43.154Z,55.70
2022-08-08T00:26:54.526Z,55.30
2022-08-08T00:30:06.348Z,56.28
2022-08-08T00:33:24.064Z,56.68
2022-08-08T00:36:34.970Z,57.14
2022-08-08T00:41:09.056Z,56.85
2022-08-08T00:43:56.014Z,58.25
2022-08-08T00:48:01.652Z,56.73
2022-08-08T00:51:44.539Z,57.57
2022-08-08T00:54:54.703Z,56.57
2022-08-08T00:58:05.433Z,56.54
2022-08-08T01:01:38.222Z,56.17
2022-08-08T01:04:54.650Z,57.06
2022-08-08T01:08:50.353Z,57.60
2022-08-08T01:12:19.948Z,58.70
2022-08-08T01:15:47.347Z,58.54
2022-08-08T01:19:42.101Z,58.25
2022-08-08T01:22:57.339Z,57.46
2022-08-08T01:26:19.509Z,56.39
2022-08-08T01:29:59.899Z,57.56
2022-08-08T01:33:42.993Z,59.24
2022-08-08T01:37:17.276Z,58.54
2022-08-08T01:40:41.137Z,58.45
2022-08-08T01:44:14.334Z,59.22
2022-08-08T01:48:14.543Z,57.23
2022-08-08T01:50:53.706Z,59.23
2022-08-08T01:55:14.910Z,59.96
2022-08-08T01:58:10.711Z,60.33
2022-08-08T02:01:22.078Z,57.00
2022-08-08T02:05:03.165Z,57.54
2022-08-08T02:08:18.506Z,56.13
2022-08-08T02:11:58.918Z,54.95
2022-08-08T02:15:12.306Z,55.86
2022-08-08T02:18:34.711Z,54.34
2022-08-08T02:22:28.262Z,55.11
2022-08-08T02:26:00.399Z,54.93
2022-08-08T02:29:07.088Z,54.60
2022-08-08T02:32:32.323Z,54.71
2022-08-08T02:36:05.272Z,54.97
2022-08-08T02:39:41.820Z,55.34
2022-08-08T02:42:47.320Z,54.59
2022-08-08T02:46:47.063Z,55.97
2022-08-08T02:50:22.929Z,54.67
2022-08-08T02:53:51.429Z,55.77
2022-08-08T02:57:17.270Z,53.89
2022-08-08T03:00:50.804Z,55.69
2022-08-08T03:05:04.943Z,57.00
2022-08-08T03:08:09.851Z,55.19
2022-08-08T03:12:01.313Z,54.62
2022-08-08T03:15:58.956Z,55.18
2022-08-08T03:18:37.711Z,55.16
2022-08-08T03:21:58.905Z,54.81
2022-08-08T03:25:09.059Z,54.69
2022-08-08T03:28:21.696Z,54.55
2022-08-08T03:32:05.874Z,55.07
2022-08-08T03:35:06.981Z,55.35
2022-08-08T03:38:58.197Z,55.04
2022-08-08T03:42:26.957Z,54.94
2022-08-08T03:44:59.536Z,54.99
2022-08-08T03:48:07.815Z,55.38
2022-08-08T03:51:14.193Z,55.33
2022-08-08T03:54:51.535Z,55.91
2022-08-08T03:58:31.446Z,55.95
2022-08-08T04:01:24.471Z,55.34
2022-08-08T04:04:37.125Z,56.03
2022-08-08T04:07:41.117Z,55.83
2022-08-08T04:10:47.868Z,55.19
2022-08-08T04:14:33.277Z,55.68
2022-08-08T04:17:58.324Z,56.63
2022-08-08T04:20:48.867Z,55.58
2022-08-08T04:24:18.931Z,55.66
2022-08-08T04:27:42.704Z,55.97
2022-08-08T04:30:44.317Z,55.94
2022-08-08T04:33:47.775Z,53.82
2022-08-08T04:36:50.945Z,53.93
2022-08-08T04:40:06.540Z,53.25
2022-08-08T04:43:12.117Z,54.11
2022-08-08T04:46:16.366Z,55.14
2022-08-08T04:49:28.965Z,55.22
2022-08-08T04:52:44.819Z,53.59
2022-08-08T04:55:55.881Z,53.97
2022-08-08T04:59:00.171Z,53.96
2022-08-08T05:02:03.824Z,53.85
2022-08-08T05:05:15.945Z,53.88
2022-08-08T05:08:27.015Z,55.84
2022-08-08T05:11:38.977Z,56.10
2022-08-08T05:14:43.045Z,56.01
2022-08-08T05:17:54.418Z,54.63
2022-08-08T05:21:00.339Z,53.93
2022-08-08T05:24:10.651Z,54.19
2022-08-08T05:27:13.974Z,54.09
2022-08-08T05:30:28.571Z,54.02
2022-08-08T05:33:44.222Z,53.40
2022-08-08T05:36:56.486Z,53.38
2022-08-08T05:40:01.862Z,53.66
2022-08-08T05:43:38.277Z,52.99
2022-08-08T05:46:33.573Z,52.42
2022-08-08T05:49:38.020Z,53.14
2022-08-08T05:52:42.345Z,52.79
2022-08-08T05:56:11.037Z,52.86
2022-08-08T05:59:59.391Z,53.32
2022-08-08T06:03:25.010Z,53.79
2022-08-08T06:06:32.376Z,53.30
2022-08-08T06:09:58.047Z,52.90
2022-08-08T06:13:03.764Z,53.27
2022-08-08T06:16:07.384Z,52.77
2022-08-08T06:19:16.354Z,52.21
2022-08-08T06:22:35.358Z,52.70
2022-08-08T06:26:43.712Z,52.21
2022-08-08T06:29:26.610Z,52.23
2022-08-08T06:32:31.236Z,52.35
2022-08-08T06:36:08.819Z,51.08
2022-08-08T06:38:59.717Z,51.64
2022-08-08T06:42:03.069Z,51.61
2022-08-08T06:45:11.978Z,50.26
2022-08-08T06:48:16.876Z,49.56
2022-08-08T06:51:21.105Z,48.13
2022-08-08T06:54:25.615Z,48.59
2022-08-08T06:57:44.327Z,47.66
2022-08-08T07:00:52.920Z,47.70
2022-08-08T07:04:38.053Z,48.32
2022-08-08T07:07:36.962Z,47.95
2022-08-08T07:10:47.759Z,47.63
2022-08-08T07:14:00.330Z,48.50
2022-08-08T07:17:14.135Z,47.30
2022-08-08T07:20:28.283Z,47.33
2022-08-08T07:24:01.063Z,47.14
2022-08-08T07:27:09.284Z,46.59
2022-08-08T07:30:21.329Z,46.76
2022-08-08T07:33:37.583Z,46.69
2022-08-08T07:36:50.288Z,46.02
2022-08-08T07:39:59.624Z,46.16
2022-08-08T07:43:09.329Z,44.84
2022-08-08T07:46:18.155Z,45.18
2022-08-08T07:49:27.519Z,43.85
2022-08-08T07:52:31.216Z,42.96
2022-08-08T07:55:36.814Z,43.13
2022-08-08T07:58:44.955Z,41.88
2022-08-08T08:02:35.301Z,42.10
2022-08-08T08:05:32.892Z,41.92
2022-08-08T08:08:50.218Z,41.76
2022-08-08T08:11:56.364Z,41.10
2022-08-08T08:15:07.361Z,41.49
2022-08-08T08:18:14.007Z,41.58
2022-08-08T08:21:44.924Z,41.86
2022-08-08T08:24:52.398Z,42.09
2022-08-08T08:27:55.107Z,41.61
2022-08-08T08:31:02.964Z,41.01
2022-08-08T08:34:07.636Z,40.48
2022-08-08T08:37:15.613Z,41.01
2022-08-08T08:40:19.516Z,39.83
2022-08-08T08:43:28.977Z,39.15
2022-08-08T08:46:32.654Z,39.43
2022-08-08T08:49:37.641Z,38.83
2022-08-08T08:52:59.463Z,38.54
2022-08-08T08:56:04.144Z,38.29
2022-08-08T08:59:08.987Z,38.29
2022-08-08T09:02:24.273Z,37.85
2022-08-08T09:05:53.893Z,38.17
2022-08-08T09:09:25.898Z,37.52
2022-08-08T09:12:34.471Z,37.49
2022-08-08T09:15:41.765Z,37.76
2022-08-08T09:18:46.989Z,37.53
2022-08-08T09:21:57.969Z,38.25
2022-08-08T09:25:07.416Z,38.09
2022-08-08T09:28:11.425Z,37.67
2022-08-08T09:31:56.982Z,38.25
2022-08-08T09:35:08.126Z,36.52
2022-08-08T09:38:17.765Z,37.61
2022-08-08T09:42:14.201Z,39.17
2022-08-08T09:45:54.214Z,38.93
2022-08-08T09:48:42.949Z,39.87
2022-08-08T09:52:06.021Z,39.73
2022-08-08T09:55:12.800Z,37.41
2022-08-08T09:58:27.749Z,37.42
2022-08-08T10:02:02.219Z,36.38
2022-08-08T10:05:26.200Z,36.75
2022-08-08T10:08:43.793Z,37.31
2022-08-08T10:12:28.217Z,37.41
2022-08-08T10:15:17.280Z,38.01
2022-08-08T10:18:30.017Z,38.28
2022-08-08T10:21:42.640Z,38.29
2022-08-08T10:25:02.438Z,38.52
2022-08-08T10:28:06.824Z,37.25
2022-08-08T10:31:47.361Z,37.21
2022-08-08T10:34:57.135Z,37.82
2022-08-08T10:38:05.898Z,39.25
2022-08-08T10:41:17.294Z,42.71
2022-08-08T10:44:30.663Z,44.49
2022-08-08T10:47:43.142Z,47.14
2022-08-08T10:50:47.256Z,47.25
2022-08-08T10:53:58.283Z,47.47
2022-08-08T10:57:05.505Z,48.18
2022-08-08T11:00:14.646Z,48.96
2022-08-08T11:03:18.755Z,48.60
2022-08-08T11:06:41.915Z,48.50
2022-08-08T11:09:50.468Z,42.93
2022-08-08T11:13:28.170Z,41.95
2022-08-08T11:16:32.814Z,40.65
2022-08-08T11:19:36.303Z,40.76
2022-08-08T11:22:40.356Z,41.37
2022-08-08T11:25:52.844Z,41.55
2022-08-08T11:29:00.193Z,40.68
2022-08-08T11:32:03.850Z,41.35
2022-08-08T11:35:27.983Z,41.51
2022-08-08T11:38:54.350Z,39.94
2022-08-08T11:41:59.006Z,38.36
2022-08-08T11:45:01.942Z,37.73
2022-08-08T11:48:05.521Z,37.58
2022-08-08T11:51:30.778Z,36.60
2022-08-08T11:54:37.997Z,37.24
2022-08-08T11:57:51.740Z,36.98
2022-08-08T12:01:12.283Z,43.57
2022-08-08T12:04:19.994Z,41.00
2022-08-08T12:07:25.572Z,39.21
2022-08-08T12:10:31.732Z,39.66
2022-08-08T12:14:02.640Z,40.73
2022-08-08T12:16:59.367Z,41.39
2022-08-08T12:20:04.876Z,40.84
2022-08-08T12:23:25.099Z,42.02
2022-08-08T12:26:41.470Z,40.82
2022-08-08T12:29:55.416Z,41.67
2022-08-08T12:33:02.046Z,42.12
2022-08-08T12:36:12.050Z,41.82
2022-08-08T12:39:56.445Z,41.58
2022-08-08T12:42:49.491Z,42.27
2022-08-08T12:45:58.915Z,43.42
2022-08-08T12:49:40.253Z,44.97
2022-08-08T12:52:32.596Z,46.77
2022-08-08T12:56:06.113Z,48.20
2022-08-08T12:58:59.357Z,50.06
2022-08-08T13:02:02.623Z,50.97
2022-08-08T13:05:15.596Z,51.24
2022-08-08T13:08:40.085Z,51.63
2022-08-08T13:12:19.786Z,52.09
2022-08-08T13:15:20.339Z,53.11
2022-08-08T13:18:27.466Z,53.98
2022-08-08T13:21:48.598Z,54.66
2022-08-08T13:24:54.673Z,55.23
2022-08-08T13:28:00.691Z,56.37
2022-08-08T13:31:04.679Z,56.23
2022-08-08T13:34:11.999Z,57.09
2022-08-08T13:37:19.530Z,58.05
2022-08-08T13:40:32.142Z,57.85
2022-08-08T13:43:35.521Z,57.17
2022-08-08T13:46:38.689Z,56.93
2022-08-08T13:50:34.666Z,57.10
2022-08-08T13:53:25.089Z,57.04
2022-08-08T13:56:44.561Z,56.43
2022-08-08T14:00:12.357Z,55.58
2022-08-08T14:03:52.486Z,55.20
2022-08-08T14:06:48.926Z,55.87
2022-08-08T14:10:05.547Z,54.77
2022-08-08T14:13:30.639Z,54.79
2022-08-08T14:16:36.114Z,55.73
2022-08-08T14:19:57.911Z,55.38
2022-08-08T14:23:21.055Z,55.00
2022-08-08T14:26:46.260Z,55.04
2022-08-08T14:29:54.051Z,53.14
2022-08-08T14:32:58.569Z,53.50
2022-08-08T14:36:02.847Z,53.70
2022-08-08T14:39:11.597Z,53.67
2022-08-08T14:42:16.739Z,53.93
2022-08-08T14:45:33.488Z,53.51
2022-08-08T14:48:57.237Z,52.30
2022-08-08T14:52:08.725Z,51.49
2022-08-08T14:55:12.626Z,49.38
2022-08-08T14:58:16.776Z,49.94
2022-08-08T15:01:37.510Z,50.36
2022-08-08T15:04:45.582Z,50.87
2022-08-08T15:07:53.822Z,50.23
2022-08-08T15:11:04.865Z,50.70
2022-08-08T15:14:13.531Z,50.39
2022-08-08T15:17:17.074Z,51.47
2022-08-08T15:20:21.215Z,51.88
2022-08-08T15:23:23.868Z,52.22
2022-08-08T15:26:35.931Z,52.44
2022-08-08T15:29:39.960Z,52.49
2022-08-08T15:32:47.207Z,52.99
2022-08-08T15:35:50.046Z,52.93
2022-08-08T15:38:55.152Z,52.90
2022-08-08T15:41:59.691Z,52.73
2022-08-08T15:45:04.472Z,53.41
2022-08-08T15:48:15.933Z,53.43
2022-08-08T15:51:22.172Z,52.95
2022-08-08T15:54:38.734Z,54.30
2022-08-08T15:57:43.335Z,53.14
2022-08-08T16:00:50.575Z,53.69
2022-08-08T16:03:53.706Z,54.07
2022-08-08T16:06:56.571Z,55.15
2022-08-08T16:13:11.562Z,54.92
2022-08-08T16:13:32.256Z,54.37
2022-08-08T16:16:39.170Z,55.25
2022-08-08T16:19:59.683Z,55.32
2022-08-08T16:23:03.826Z,55.60
2022-08-08T16:26:17.458Z,55.99
2022-08-08T16:29:23.895Z,56.80
2022-08-08T16:32:40.518Z,57.24
2022-08-08T16:35:43.761Z,57.05
2022-08-08T16:38:54.063Z,56.76
2022-08-08T16:42:01.243Z,57.00
2022-08-08T16:45:11.375Z,57.34
2022-08-08T16:48:32.238Z,56.86
2022-08-08T16:55:04.075Z,58.24
2022-08-08T16:55:33.943Z,58.46
2022-08-08T16:58:31.580Z,58.49
2022-08-08T17:01:39.669Z,58.77
2022-08-08T17:04:42.771Z,59.66
2022-08-08T17:07:51.182Z,59.82
2022-08-08T17:10:58.772Z,59.68
2022-08-08T17:14:18.169Z,60.10
2022-08-08T17:18:01.417Z,60.67
2022-08-08T17:20:46.407Z,60.40
2022-08-08T17:24:02.074Z,60.67
2022-08-08T17:27:07.476Z,61.36
2022-08-08T17:30:16.367Z,61.12
2022-08-08T17:34:53.191Z,61.45
2022-08-08T17:37:01.062Z,60.83
2022-08-08T17:40:13.161Z,60.41
2022-08-08T17:43:18.091Z,60.33
2022-08-08T17:46:37.634Z,60.53
2022-08-08T17:49:44.368Z,60.19
2022-08-08T17:52:53.587Z,60.29
2022-08-08T17:56:05.613Z,61.21
2022-08-08T17:59:10.989Z,61.85
2022-08-08T18:02:16.425Z,61.99
2022-08-08T18:05:22.305Z,62.33
2022-08-08T18:08:41.452Z,62.59
2022-08-08T18:11:51.056Z,62.94
2022-08-08T18:14:53.799Z,63.39
2022-08-08T18:18:05.016Z,64.00
2022-08-08T18:21:35.336Z,64.30
2022-08-08T18:24:35.789Z,64.30
2022-08-08T18:27:43.261Z,64.49
2022-08-08T18:30:47.986Z,64.07
2022-08-08T18:34:24.953Z,64.52
2022-08-08T18:37:33.729Z,64.25
2022-08-08T18:40:36.619Z,64.26
2022-08-08T18:43:43.295Z,64.06
2022-08-08T18:46:54.150Z,64.05
2022-08-08T18:53:05.155Z,64.93
2022-08-08T18:56:08.126Z,66.14
2022-08-08T18:59:11.878Z,66.43
2022-08-08T19:02:27.816Z,66.63
2022-08-08T19:05:45.350Z,66.79
2022-08-08T19:08:49.713Z,67.27
2022-08-08T19:11:52.398Z,67.21
2022-08-08T19:14:57.718Z,67.46
2022-08-08T19:18:32.371Z,67.98
2022-08-08T19:21:31.086Z,68.43
2022-08-08T19:24:44.020Z,67.93
2022-08-08T19:27:59.774Z,68.25
2022-08-08T19:31:07.080Z,68.14
2022-08-08T19:34:30.047Z,68.22
2022-08-08T19:37:43.364Z,68.26
2022-08-08T19:40:55.723Z,67.89
2022-08-08T19:44:04.092Z,68.67
2022-08-08T19:47:15.920Z,68.52
2022-08-08T19:50:19.076Z,69.07
2022-08-08T19:53:53.424Z,68.33
2022-08-08T19:56:48.817Z,68.49
2022-08-08T19:59:52.254Z,68.94
2022-08-08T20:02:55.277Z,69.50
2022-08-08T20:06:14.744Z,69.62
2022-08-08T20:09:22.993Z,69.82
2022-08-08T20:12:32.774Z,70.35
2022-08-08T20:15:59.950Z,71.82
2022-08-08T20:19:01.591Z,72.60
2022-08-08T20:22:05.167Z,73.24
2022-08-08T20:25:24.672Z,73.35
2022-08-08T20:28:33.244Z,73.96
2022-08-08T20:32:07.543Z,74.43
2022-08-08T20:35:01.390Z,74.69
2022-08-08T20:38:04.867Z,74.33
2022-08-08T20:41:19.071Z,74.10
2022-08-08T20:44:25.181Z,74.01
2022-08-08T20:47:36.206Z,73.91
2022-08-08T20:50:42.142Z,74.02
2022-08-08T20:53:59.936Z,74.04
2022-08-08T20:57:17.462Z,74.77
2022-08-08T21:00:23.535Z,74.29
2022-08-08T21:03:29.873Z,74.43
2022-08-08T21:06:52.449Z,74.02
2022-08-08T21:10:08.253Z,74.49
2022-08-08T21:13:15.746Z,74.71
2022-08-08T21:16:28.690Z,75.11
2022-08-08T21:19:44.394Z,74.31
2022-08-08T21:22:50.066Z,74.77
2022-08-08T21:25:55.063Z,74.29
2022-08-08T21:29:02.205Z,75.02
2022-08-08T21:32:07.807Z,74.12
2022-08-08T21:36:16.191Z,73.64
2022-08-08T21:38:45.542Z,73.76
2022-08-08T21:41:51.290Z,73.38
2022-08-08T21:45:44.457Z,73.73
2022-08-08T21:48:35.260Z,73.28
2022-08-08T21:54:31.917Z,73.41
2022-08-08T21:55:24.293Z,73.29
2022-08-08T21:58:37.539Z,72.90
2022-08-08T22:01:42.523Z,73.33
2022-08-08T22:04:45.584Z,73.68
2022-08-08T22:07:49.167Z,72.83
2022-08-08T22:10:53.944Z,73.52
2022-08-08T22:13:57.330Z,72.86
2022-08-08T22:17:01.639Z,73.17
2022-08-08T22:20:12.886Z,73.29
2022-08-08T22:23:21.917Z,73.88
2022-08-08T22:26:32.425Z,74.91
2022-08-08T22:29:59.573Z,76.39
2022-08-08T22:32:58.381Z,76.62
2022-08-08T22:36:04.612Z,77.68
2022-08-08T22:39:19.750Z,77.88
2022-08-08T22:42:27.477Z,77.35
2022-08-08T22:45:34.863Z,76.66
2022-08-08T22:48:37.933Z,76.35
2022-08-08T22:51:42.884Z,76.63
2022-08-08T22:54:58.937Z,77.59
2022-08-08T22:58:08.071Z,76.67
2022-08-08T23:01:30.214Z,77.66
2022-08-08T23:04:34.768Z,77.53
2022-08-08T23:07:50.911Z,77.78
2022-08-08T23:11:05.752Z,77.63
2022-08-08T23:14:11.397Z,77.53
2022-08-08T23:17:14.637Z,78.34
2022-08-08T23:20:19.959Z,78.09
2022-08-08T23:23:22.905Z,78.04
2022-08-08T23:26:26.030Z,77.61
2022-08-08T23:29:31.140Z,78.34
2022-08-08T23:32:34.445Z,77.53
2022-08-08T23:35:59.001Z,77.54
2022-08-08T23:39:00.003Z,78.06
2022-08-08T23:42:08.921Z,77.81
2022-08-08T23:45:12.614Z,77.34
2022-08-08T23:48:59.924Z,77.31
2022-08-08T23:51:42.218Z,77.37
2022-08-08T23:55:14.081Z,77.62
2022-08-08T23:58:31.871Z,77.75
